sensor_id;sensor_type;location;lat;lon;timestamp;temperature;humidity
65692;DHT22;52411;52.716;6.696;2024-03-07T00:00:11;5.70;99.90
65692;DHT22;52411;52.716;6.696;2024-03-07T00:02:47;5.60;99.90
65692;DHT22;52411;52.716;6.696;2024-03-07T00:05:19;5.60;99.90
65692;DHT22;52411;52.716;6.696;2024-03-07T00:07:45;5.60;99.90
65692;DHT22;52411;52.716;6.696;2024-03-07T00:10:12;5.60;99.90
65692;DHT22;52411;52.716;6.696;2024-03-07T00:12:39;5.60;99.90
65692;DHT22;52411;52.716;6.696;2024-03-07T00:15:06;5.60;99.90
65692;DHT22;52411;52.716;6.696;2024-03-07T00:17:32;5.60;99.90
65692;DHT22;52411;52.716;6.696;2024-03-07T00:19:58;5.50;99.90
65692;DHT22;52411;52.716;6.696;2024-03-07T00:22:24;5.60;99.90
65692;DHT22;52411;52.716;6.696;2024-03-07T00:24:53;5.60;99.90
65692;DHT22;52411;52.716;6.696;2024-03-07T00:27:18;5.60;99.90
65692;DHT22;52411;52.716;6.696;2024-03-07T00:29:47;5.50;99.90
65692;DHT22;52411;52.716;6.696;2024-03-07T00:32:19;5.50;99.90
65692;DHT22;52411;52.716;6.696;2024-03-07T00:34:45;5.50;99.90
65692;DHT22;52411;52.716;6.696;2024-03-07T00:37:10;5.40;99.90
65692;DHT22;52411;52.716;6.696;2024-03-07T00:39:36;5.40;99.90
65692;DHT22;52411;52.716;6.696;2024-03-07T00:42:01;5.40;99.90
65692;DHT22;52411;52.716;6.696;2024-03-07T00:44:27;5.40;99.90
65692;DHT22;52411;52.716;6.696;2024-03-07T00:46:53;5.40;99.90
65692;DHT22;52411;52.716;6.696;2024-03-07T00:49:18;5.50;99.90
65692;DHT22;52411;52.716;6.696;2024-03-07T00:51:44;5.30;99.90
65692;DHT22;52411;52.716;6.696;2024-03-07T00:54:10;5.30;99.90
65692;DHT22;52411;52.716;6.696;2024-03-07T00:56:38;5.20;99.90
65692;DHT22;52411;52.716;6.696;2024-03-07T00:59:04;5.20;99.90
65692;DHT22;52411;52.716;6.696;2024-03-07T01:01:31;5.20;99.90
65692;DHT22;52411;52.716;6.696;2024-03-07T01:03:59;5.20;99.90
65692;DHT22;52411;52.716;6.696;2024-03-07T01:06:25;5.10;99.90
65692;DHT22;52411;52.716;6.696;2024-03-07T01:08:51;5.10;99.90
65692;DHT22;52411;52.716;6.696;2024-03-07T01:11:17;5.10;99.90
65692;DHT22;52411;52.716;6.696;2024-03-07T01:13:43;5.10;99.90
65692;DHT22;52411;52.716;6.696;2024-03-07T01:16:10;5.00;99.90
65692;DHT22;52411;52.716;6.696;2024-03-07T01:18:36;5.00;99.90
65692;DHT22;52411;52.716;6.696;2024-03-07T01:21:04;4.90;99.90
65692;DHT22;52411;52.716;6.696;2024-03-07T01:23:31;4.90;99.90
65692;DHT22;52411;52.716;6.696;2024-03-07T01:25:57;4.80;99.90
65692;DHT22;52411;52.716;6.696;2024-03-07T01:28:25;4.80;99.90
65692;DHT22;52411;52.716;6.696;2024-03-07T01:30:51;4.70;99.90
65692;DHT22;52411;52.716;6.696;2024-03-07T01:33:17;4.70;99.90
65692;DHT22;52411;52.716;6.696;2024-03-07T01:35:42;4.70;99.90
65692;DHT22;52411;52.716;6.696;2024-03-07T01:38:08;4.40;99.90
65692;DHT22;52411;52.716;6.696;2024-03-07T01:40:36;4.30;99.90
65692;DHT22;52411;52.716;6.696;2024-03-07T01:43:02;4.20;99.90
65692;DHT22;52411;52.716;6.696;2024-03-07T01:45:28;4.10;99.90
65692;DHT22;52411;52.716;6.696;2024-03-07T01:47:54;4.00;99.90
65692;DHT22;52411;52.716;6.696;2024-03-07T01:50:21;4.00;99.90
65692;DHT22;52411;52.716;6.696;2024-03-07T01:52:47;3.90;99.90
65692;DHT22;52411;52.716;6.696;2024-03-07T01:55:16;3.80;99.90
65692;DHT22;52411;52.716;6.696;2024-03-07T01:57:42;3.80;99.90
65692;DHT22;52411;52.716;6.696;2024-03-07T02:00:08;3.80;99.90
65692;DHT22;52411;52.716;6.696;2024-03-07T02:02:35;3.70;99.90
65692;DHT22;52411;52.716;6.696;2024-03-07T02:05:01;3.70;99.90
65692;DHT22;52411;52.716;6.696;2024-03-07T02:07:35;3.80;99.90
65692;DHT22;52411;52.716;6.696;2024-03-07T02:10:05;3.70;99.90
65692;DHT22;52411;52.716;6.696;2024-03-07T02:12:32;3.70;99.90
65692;DHT22;52411;52.716;6.696;2024-03-07T02:14:58;3.70;99.90
65692;DHT22;52411;52.716;6.696;2024-03-07T02:17:27;3.70;99.90
65692;DHT22;52411;52.716;6.696;2024-03-07T02:19:53;3.70;99.90
65692;DHT22;52411;52.716;6.696;2024-03-07T02:22:19;3.70;99.90
65692;DHT22;52411;52.716;6.696;2024-03-07T02:24:45;3.60;99.90
65692;DHT22;52411;52.716;6.696;2024-03-07T02:27:14;3.60;99.90
65692;DHT22;52411;52.716;6.696;2024-03-07T02:29:40;3.70;99.90
65692;DHT22;52411;52.716;6.696;2024-03-07T02:32:06;3.60;99.90
65692;DHT22;52411;52.716;6.696;2024-03-07T02:34:32;3.60;99.90
65692;DHT22;52411;52.716;6.696;2024-03-07T02:36:58;3.50;99.90
65692;DHT22;52411;52.716;6.696;2024-03-07T02:39:24;3.40;99.90
65692;DHT22;52411;52.716;6.696;2024-03-07T02:41:52;3.40;99.90
65692;DHT22;52411;52.716;6.696;2024-03-07T02:44:18;3.30;99.90
65692;DHT22;52411;52.716;6.696;2024-03-07T02:46:45;3.30;99.90
65692;DHT22;52411;52.716;6.696;2024-03-07T02:49:10;3.30;99.90
65692;DHT22;52411;52.716;6.696;2024-03-07T02:51:36;3.30;99.90
65692;DHT22;52411;52.716;6.696;2024-03-07T02:54:02;3.20;99.90
65692;DHT22;52411;52.716;6.696;2024-03-07T02:56:31;3.20;99.90
65692;DHT22;52411;52.716;6.696;2024-03-07T02:58:56;3.20;99.90
65692;DHT22;52411;52.716;6.696;2024-03-07T03:01:22;3.20;99.90
65692;DHT22;52411;52.716;6.696;2024-03-07T03:03:48;3.10;99.90
65692;DHT22;52411;52.716;6.696;2024-03-07T03:06:13;3.00;99.90
65692;DHT22;52411;52.716;6.696;2024-03-07T03:08:39;3.00;99.90
65692;DHT22;52411;52.716;6.696;2024-03-07T03:11:04;3.00;99.90
65692;DHT22;52411;52.716;6.696;2024-03-07T03:13:30;2.90;99.90
65692;DHT22;52411;52.716;6.696;2024-03-07T03:15:56;2.90;99.90
65692;DHT22;52411;52.716;6.696;2024-03-07T03:18:22;2.90;99.90
65692;DHT22;52411;52.716;6.696;2024-03-07T03:24:30;2.90;99.90
65692;DHT22;52411;52.716;6.696;2024-03-07T03:26:56;2.90;99.90
65692;DHT22;52411;52.716;6.696;2024-03-07T03:29:21;2.90;99.90
65692;DHT22;52411;52.716;6.696;2024-03-07T03:31:47;2.90;99.90
65692;DHT22;52411;52.716;6.696;2024-03-07T03:34:13;2.80;99.90
65692;DHT22;52411;52.716;6.696;2024-03-07T03:36:38;2.80;99.90
65692;DHT22;52411;52.716;6.696;2024-03-07T03:39:04;2.90;99.90
65692;DHT22;52411;52.716;6.696;2024-03-07T03:41:30;2.80;99.90
65692;DHT22;52411;52.716;6.696;2024-03-07T03:43:55;2.80;99.90
65692;DHT22;52411;52.716;6.696;2024-03-07T03:46:22;2.80;99.90
65692;DHT22;52411;52.716;6.696;2024-03-07T03:48:48;2.80;99.90
65692;DHT22;52411;52.716;6.696;2024-03-07T03:51:16;2.80;99.90
65692;DHT22;52411;52.716;6.696;2024-03-07T03:53:41;2.70;99.90
65692;DHT22;52411;52.716;6.696;2024-03-07T03:56:10;2.70;99.90
65692;DHT22;52411;52.716;6.696;2024-03-07T03:58:39;2.60;99.90
65692;DHT22;52411;52.716;6.696;2024-03-07T04:01:04;2.60;99.90
65692;DHT22;52411;52.716;6.696;2024-03-07T04:03:33;2.60;99.90
65692;DHT22;52411;52.716;6.696;2024-03-07T04:05:59;2.50;99.90
65692;DHT22;52411;52.716;6.696;2024-03-07T04:08:24;2.60;99.90
65692;DHT22;52411;52.716;6.696;2024-03-07T04:10:50;2.50;99.90
65692;DHT22;52411;52.716;6.696;2024-03-07T04:13:15;2.50;99.90
65692;DHT22;52411;52.716;6.696;2024-03-07T04:15:41;2.40;99.90
65692;DHT22;52411;52.716;6.696;2024-03-07T04:18:06;2.40;99.90
65692;DHT22;52411;52.716;6.696;2024-03-07T04:20:33;2.30;99.90
65692;DHT22;52411;52.716;6.696;2024-03-07T04:22:58;2.30;99.90
65692;DHT22;52411;52.716;6.696;2024-03-07T04:25:24;2.30;99.90
65692;DHT22;52411;52.716;6.696;2024-03-07T04:27:50;2.40;99.90
65692;DHT22;52411;52.716;6.696;2024-03-07T04:30:16;2.30;99.90
65692;DHT22;52411;52.716;6.696;2024-03-07T04:32:42;2.30;99.90
65692;DHT22;52411;52.716;6.696;2024-03-07T04:35:08;2.20;99.90
65692;DHT22;52411;52.716;6.696;2024-03-07T04:37:36;2.20;99.90
65692;DHT22;52411;52.716;6.696;2024-03-07T04:40:05;2.20;99.90
65692;DHT22;52411;52.716;6.696;2024-03-07T04:42:41;2.20;99.90
65692;DHT22;52411;52.716;6.696;2024-03-07T04:45:08;2.10;99.90
65692;DHT22;52411;52.716;6.696;2024-03-07T04:47:36;2.00;99.90
65692;DHT22;52411;52.716;6.696;2024-03-07T04:50:02;2.10;99.90
65692;DHT22;52411;52.716;6.696;2024-03-07T04:52:28;2.00;99.90
65692;DHT22;52411;52.716;6.696;2024-03-07T04:54:53;2.00;99.90
65692;DHT22;52411;52.716;6.696;2024-03-07T04:57:20;2.00;99.90
65692;DHT22;52411;52.716;6.696;2024-03-07T04:59:45;2.00;99.90
65692;DHT22;52411;52.716;6.696;2024-03-07T05:02:11;2.00;99.90
65692;DHT22;52411;52.716;6.696;2024-03-07T05:04:37;2.00;99.90
65692;DHT22;52411;52.716;6.696;2024-03-07T05:07:03;2.00;99.90
65692;DHT22;52411;52.716;6.696;2024-03-07T05:09:28;1.90;99.90
65692;DHT22;52411;52.716;6.696;2024-03-07T05:11:55;1.90;99.90
65692;DHT22;52411;52.716;6.696;2024-03-07T05:14:21;1.80;99.90
65692;DHT22;52411;52.716;6.696;2024-03-07T05:16:51;1.80;99.90
65692;DHT22;52411;52.716;6.696;2024-03-07T05:19:34;1.80;99.90
65692;DHT22;52411;52.716;6.696;2024-03-07T05:22:00;1.70;99.90
65692;DHT22;52411;52.716;6.696;2024-03-07T05:24:27;1.60;99.90
65692;DHT22;52411;52.716;6.696;2024-03-07T05:26:53;1.60;99.90
65692;DHT22;52411;52.716;6.696;2024-03-07T05:29:19;1.50;99.90
65692;DHT22;52411;52.716;6.696;2024-03-07T05:31:45;1.60;99.90
65692;DHT22;52411;52.716;6.696;2024-03-07T05:34:17;1.50;99.90
65692;DHT22;52411;52.716;6.696;2024-03-07T05:36:48;1.50;99.90
65692;DHT22;52411;52.716;6.696;2024-03-07T05:39:15;1.40;99.90
65692;DHT22;52411;52.716;6.696;2024-03-07T05:41:42;1.40;99.90
65692;DHT22;52411;52.716;6.696;2024-03-07T05:44:08;1.30;99.90
65692;DHT22;52411;52.716;6.696;2024-03-07T05:46:38;1.30;99.90
65692;DHT22;52411;52.716;6.696;2024-03-07T05:49:10;1.30;99.90
65692;DHT22;52411;52.716;6.696;2024-03-07T05:51:35;1.30;99.90
65692;DHT22;52411;52.716;6.696;2024-03-07T05:54:01;1.30;99.90
65692;DHT22;52411;52.716;6.696;2024-03-07T05:56:32;1.30;99.90
65692;DHT22;52411;52.716;6.696;2024-03-07T05:59:03;1.30;99.90
65692;DHT22;52411;52.716;6.696;2024-03-07T06:01:38;1.30;99.90
65692;DHT22;52411;52.716;6.696;2024-03-07T06:04:07;1.30;99.90
65692;DHT22;52411;52.716;6.696;2024-03-07T06:06:34;1.30;99.90
65692;DHT22;52411;52.716;6.696;2024-03-07T06:09:02;1.30;99.90
65692;DHT22;52411;52.716;6.696;2024-03-07T06:11:33;1.30;99.90
65692;DHT22;52411;52.716;6.696;2024-03-07T06:13:59;1.30;99.90
65692;DHT22;52411;52.716;6.696;2024-03-07T06:16:24;1.30;99.90
65692;DHT22;52411;52.716;6.696;2024-03-07T06:18:50;1.30;99.90
65692;DHT22;52411;52.716;6.696;2024-03-07T06:21:17;1.30;99.90
65692;DHT22;52411;52.716;6.696;2024-03-07T06:23:44;1.20;99.90
65692;DHT22;52411;52.716;6.696;2024-03-07T06:26:13;1.20;99.90
65692;DHT22;52411;52.716;6.696;2024-03-07T06:28:42;1.20;99.90
65692;DHT22;52411;52.716;6.696;2024-03-07T06:31:08;1.20;99.90
65692;DHT22;52411;52.716;6.696;2024-03-07T06:33:34;1.30;99.90
65692;DHT22;52411;52.716;6.696;2024-03-07T06:36:00;1.30;99.90
65692;DHT22;52411;52.716;6.696;2024-03-07T06:38:26;1.30;99.90
65692;DHT22;52411;52.716;6.696;2024-03-07T06:40:52;1.30;99.90
65692;DHT22;52411;52.716;6.696;2024-03-07T06:43:18;1.30;99.90
65692;DHT22;52411;52.716;6.696;2024-03-07T06:45:44;1.40;99.90
65692;DHT22;52411;52.716;6.696;2024-03-07T06:48:11;1.40;99.90
65692;DHT22;52411;52.716;6.696;2024-03-07T06:50:38;1.40;99.90
65692;DHT22;52411;52.716;6.696;2024-03-07T06:53:04;1.40;99.90
65692;DHT22;52411;52.716;6.696;2024-03-07T06:55:32;1.50;99.90
65692;DHT22;52411;52.716;6.696;2024-03-07T06:58:00;1.50;99.90
65692;DHT22;52411;52.716;6.696;2024-03-07T07:00:26;1.50;99.90
65692;DHT22;52411;52.716;6.696;2024-03-07T07:02:52;1.50;99.90
65692;DHT22;52411;52.716;6.696;2024-03-07T07:05:20;1.50;99.90
65692;DHT22;52411;52.716;6.696;2024-03-07T07:07:46;1.60;99.90
65692;DHT22;52411;52.716;6.696;2024-03-07T07:10:13;1.60;99.90
65692;DHT22;52411;52.716;6.696;2024-03-07T07:12:45;1.70;99.90
65692;DHT22;52411;52.716;6.696;2024-03-07T07:15:11;1.70;99.90
65692;DHT22;52411;52.716;6.696;2024-03-07T07:17:38;1.70;99.90
65692;DHT22;52411;52.716;6.696;2024-03-07T07:20:04;1.80;99.90
65692;DHT22;52411;52.716;6.696;2024-03-07T07:22:38;1.90;99.90
65692;DHT22;52411;52.716;6.696;2024-03-07T07:25:07;1.90;99.90
65692;DHT22;52411;52.716;6.696;2024-03-07T07:27:41;2.00;99.90
65692;DHT22;52411;52.716;6.696;2024-03-07T07:30:08;2.00;99.90
65692;DHT22;52411;52.716;6.696;2024-03-07T07:32:34;2.10;99.90
65692;DHT22;52411;52.716;6.696;2024-03-07T07:35:01;2.20;99.90
65692;DHT22;52411;52.716;6.696;2024-03-07T07:37:26;2.30;99.90
65692;DHT22;52411;52.716;6.696;2024-03-07T07:39:52;2.30;99.90
65692;DHT22;52411;52.716;6.696;2024-03-07T07:42:18;2.40;99.90
65692;DHT22;52411;52.716;6.696;2024-03-07T07:44:43;2.50;99.90
65692;DHT22;52411;52.716;6.696;2024-03-07T07:47:09;2.60;99.90
65692;DHT22;52411;52.716;6.696;2024-03-07T07:49:39;2.70;99.90
65692;DHT22;52411;52.716;6.696;2024-03-07T07:52:06;2.80;99.90
65692;DHT22;52411;52.716;6.696;2024-03-07T07:54:34;2.90;99.90
65692;DHT22;52411;52.716;6.696;2024-03-07T07:56:59;2.90;99.90
65692;DHT22;52411;52.716;6.696;2024-03-07T07:59:25;3.10;99.90
65692;DHT22;52411;52.716;6.696;2024-03-07T08:01:50;3.20;99.90
65692;DHT22;52411;52.716;6.696;2024-03-07T08:04:18;3.20;99.90
65692;DHT22;52411;52.716;6.696;2024-03-07T08:06:44;3.30;99.90
65692;DHT22;52411;52.716;6.696;2024-03-07T08:09:09;3.30;99.90
65692;DHT22;52411;52.716;6.696;2024-03-07T08:11:36;3.40;99.90
65692;DHT22;52411;52.716;6.696;2024-03-07T08:14:02;3.50;99.90
65692;DHT22;52411;52.716;6.696;2024-03-07T08:16:28;3.50;99.90
65692;DHT22;52411;52.716;6.696;2024-03-07T08:18:55;3.60;99.90
65692;DHT22;52411;52.716;6.696;2024-03-07T08:21:21;3.70;99.90
65692;DHT22;52411;52.716;6.696;2024-03-07T08:23:48;3.80;99.90
65692;DHT22;52411;52.716;6.696;2024-03-07T08:26:14;3.90;99.90
65692;DHT22;52411;52.716;6.696;2024-03-07T08:28:41;3.90;99.90
65692;DHT22;52411;52.716;6.696;2024-03-07T08:31:06;4.00;99.90
65692;DHT22;52411;52.716;6.696;2024-03-07T08:33:32;4.10;99.90
65692;DHT22;52411;52.716;6.696;2024-03-07T08:35:59;4.00;99.90
65692;DHT22;52411;52.716;6.696;2024-03-07T08:38:24;4.00;99.90
65692;DHT22;52411;52.716;6.696;2024-03-07T08:40:50;3.70;99.90
65692;DHT22;52411;52.716;6.696;2024-03-07T08:43:16;3.70;99.90
65692;DHT22;52411;52.716;6.696;2024-03-07T08:45:41;3.60;99.90
65692;DHT22;52411;52.716;6.696;2024-03-07T08:48:07;3.50;99.90
65692;DHT22;52411;52.716;6.696;2024-03-07T08:50:34;3.30;99.90
65692;DHT22;52411;52.716;6.696;2024-03-07T08:53:00;3.10;99.90
65692;DHT22;52411;52.716;6.696;2024-03-07T08:55:26;3.10;99.90
65692;DHT22;52411;52.716;6.696;2024-03-07T08:57:52;3.00;99.90
65692;DHT22;52411;52.716;6.696;2024-03-07T09:00:19;3.00;99.90
65692;DHT22;52411;52.716;6.696;2024-03-07T09:02:52;3.00;99.90
65692;DHT22;52411;52.716;6.696;2024-03-07T09:05:18;3.00;99.90
65692;DHT22;52411;52.716;6.696;2024-03-07T09:07:45;3.00;99.90
65692;DHT22;52411;52.716;6.696;2024-03-07T09:10:12;3.00;99.90
65692;DHT22;52411;52.716;6.696;2024-03-07T09:12:39;3.00;99.90
65692;DHT22;52411;52.716;6.696;2024-03-07T09:15:04;2.90;99.90
65692;DHT22;52411;52.716;6.696;2024-03-07T09:17:30;2.90;99.90
65692;DHT22;52411;52.716;6.696;2024-03-07T09:19:56;3.10;99.90
65692;DHT22;52411;52.716;6.696;2024-03-07T09:22:21;3.10;99.90
65692;DHT22;52411;52.716;6.696;2024-03-07T09:24:47;3.20;99.90
65692;DHT22;52411;52.716;6.696;2024-03-07T09:27:13;3.20;99.90
65692;DHT22;52411;52.716;6.696;2024-03-07T09:29:45;3.20;99.90
65692;DHT22;52411;52.716;6.696;2024-03-07T09:32:13;3.20;99.90
65692;DHT22;52411;52.716;6.696;2024-03-07T09:34:38;3.30;99.90
65692;DHT22;52411;52.716;6.696;2024-03-07T09:37:04;3.40;99.90
65692;DHT22;52411;52.716;6.696;2024-03-07T09:39:32;3.50;99.90
65692;DHT22;52411;52.716;6.696;2024-03-07T09:42:01;3.70;99.90
65692;DHT22;52411;52.716;6.696;2024-03-07T09:44:28;3.90;99.90
65692;DHT22;52411;52.716;6.696;2024-03-07T09:46:55;4.00;99.90
65692;DHT22;52411;52.716;6.696;2024-03-07T09:49:21;4.00;99.90
65692;DHT22;52411;52.716;6.696;2024-03-07T09:51:51;4.20;99.90
65692;DHT22;52411;52.716;6.696;2024-03-07T09:54:20;4.20;99.90
65692;DHT22;52411;52.716;6.696;2024-03-07T09:56:49;4.40;99.90
65692;DHT22;52411;52.716;6.696;2024-03-07T09:59:17;4.30;99.90
65692;DHT22;52411;52.716;6.696;2024-03-07T10:01:47;4.40;99.90
65692;DHT22;52411;52.716;6.696;2024-03-07T10:04:13;4.60;99.90
65692;DHT22;52411;52.716;6.696;2024-03-07T10:06:40;4.70;99.90
65692;DHT22;52411;52.716;6.696;2024-03-07T10:09:10;4.70;99.90
65692;DHT22;52411;52.716;6.696;2024-03-07T10:11:42;4.90;99.90
65692;DHT22;52411;52.716;6.696;2024-03-07T10:14:08;5.10;99.90
65692;DHT22;52411;52.716;6.696;2024-03-07T10:16:34;5.10;99.90
65692;DHT22;52411;52.716;6.696;2024-03-07T10:19:04;5.30;99.90
65692;DHT22;52411;52.716;6.696;2024-03-07T10:21:29;5.50;99.90
65692;DHT22;52411;52.716;6.696;2024-03-07T10:24:08;5.50;99.90
65692;DHT22;52411;52.716;6.696;2024-03-07T10:26:35;5.60;99.90
65692;DHT22;52411;52.716;6.696;2024-03-07T10:29:03;5.50;99.90
65692;DHT22;52411;52.716;6.696;2024-03-07T10:31:33;5.50;99.90
65692;DHT22;52411;52.716;6.696;2024-03-07T10:34:03;5.60;99.90
65692;DHT22;52411;52.716;6.696;2024-03-07T10:36:30;5.70;99.90
65692;DHT22;52411;52.716;6.696;2024-03-07T10:38:59;5.80;99.90
65692;DHT22;52411;52.716;6.696;2024-03-07T10:44:08;6.00;99.90
65692;DHT22;52411;52.716;6.696;2024-03-07T10:46:36;6.10;99.90
65692;DHT22;52411;52.716;6.696;2024-03-07T10:49:03;6.10;99.90
65692;DHT22;52411;52.716;6.696;2024-03-07T10:51:39;6.10;99.90
65692;DHT22;52411;52.716;6.696;2024-03-07T10:59:18;6.50;99.90
65692;DHT22;52411;52.716;6.696;2024-03-07T11:04:16;6.50;99.90
65692;DHT22;52411;52.716;6.696;2024-03-07T11:06:42;6.50;99.90
65692;DHT22;52411;52.716;6.696;2024-03-07T11:09:10;6.60;99.90
65692;DHT22;52411;52.716;6.696;2024-03-07T11:11:39;6.70;99.90
65692;DHT22;52411;52.716;6.696;2024-03-07T11:14:10;6.70;99.90
65692;DHT22;52411;52.716;6.696;2024-03-07T11:16:38;6.80;99.90
65692;DHT22;52411;52.716;6.696;2024-03-07T11:21:49;6.90;99.90
65692;DHT22;52411;52.716;6.696;2024-03-07T11:24:28;7.00;99.90
65692;DHT22;52411;52.716;6.696;2024-03-07T11:26:57;7.00;99.90
65692;DHT22;52411;52.716;6.696;2024-03-07T11:29:48;7.00;99.90
65692;DHT22;52411;52.716;6.696;2024-03-07T11:32:19;7.00;99.90
65692;DHT22;52411;52.716;6.696;2024-03-07T11:34:46;7.10;99.90
65692;DHT22;52411;52.716;6.696;2024-03-07T11:37:42;7.30;99.90
65692;DHT22;52411;52.716;6.696;2024-03-07T11:42:49;7.30;99.90
65692;DHT22;52411;52.716;6.696;2024-03-07T11:45:15;7.30;99.90
65692;DHT22;52411;52.716;6.696;2024-03-07T11:47:53;7.20;99.90
65692;DHT22;52411;52.716;6.696;2024-03-07T11:50:29;7.20;99.90
65692;DHT22;52411;52.716;6.696;2024-03-07T11:52:55;7.20;99.90
65692;DHT22;52411;52.716;6.696;2024-03-07T11:55:22;7.20;99.90
65692;DHT22;52411;52.716;6.696;2024-03-07T11:57:51;7.10;99.90
65692;DHT22;52411;52.716;6.696;2024-03-07T12:00:20;7.00;99.90
65692;DHT22;52411;52.716;6.696;2024-03-07T12:02:49;7.00;99.90
65692;DHT22;52411;52.716;6.696;2024-03-07T12:05:15;7.00;99.90
65692;DHT22;52411;52.716;6.696;2024-03-07T12:07:43;7.00;99.90
65692;DHT22;52411;52.716;6.696;2024-03-07T12:10:09;7.00;99.90
65692;DHT22;52411;52.716;6.696;2024-03-07T12:12:35;7.00;99.90
65692;DHT22;52411;52.716;6.696;2024-03-07T12:15:05;7.00;99.90
65692;DHT22;52411;52.716;6.696;2024-03-07T12:17:35;7.00;99.90
65692;DHT22;52411;52.716;6.696;2024-03-07T12:20:01;7.00;99.90
65692;DHT22;52411;52.716;6.696;2024-03-07T12:22:47;7.00;99.90
65692;DHT22;52411;52.716;6.696;2024-03-07T12:25:18;7.10;99.90
65692;DHT22;52411;52.716;6.696;2024-03-07T12:28:03;7.00;99.90
65692;DHT22;52411;52.716;6.696;2024-03-07T12:30:32;7.00;99.90
65692;DHT22;52411;52.716;6.696;2024-03-07T12:32:59;7.00;99.90
65692;DHT22;52411;52.716;6.696;2024-03-07T12:35:27;7.00;99.90
65692;DHT22;52411;52.716;6.696;2024-03-07T12:37:53;7.10;99.90
65692;DHT22;52411;52.716;6.696;2024-03-07T12:40:20;7.30;99.90
65692;DHT22;52411;52.716;6.696;2024-03-07T12:42:52;7.50;99.90
65692;DHT22;52411;52.716;6.696;2024-03-07T12:45:21;7.80;99.90
65692;DHT22;52411;52.716;6.696;2024-03-07T12:47:52;8.10;99.90
65692;DHT22;52411;52.716;6.696;2024-03-07T12:50:20;8.50;99.90
65692;DHT22;52411;52.716;6.696;2024-03-07T12:52:49;8.50;99.90
65692;DHT22;52411;52.716;6.696;2024-03-07T12:55:18;8.40;99.90
65692;DHT22;52411;52.716;6.696;2024-03-07T12:57:47;8.50;99.90
65692;DHT22;52411;52.716;6.696;2024-03-07T13:00:15;8.30;99.90
65692;DHT22;52411;52.716;6.696;2024-03-07T13:02:48;8.30;99.90
65692;DHT22;52411;52.716;6.696;2024-03-07T13:05:14;8.10;99.90
65692;DHT22;52411;52.716;6.696;2024-03-07T13:07:48;7.90;99.90
65692;DHT22;52411;52.716;6.696;2024-03-07T13:10:16;7.90;99.90
65692;DHT22;52411;52.716;6.696;2024-03-07T13:12:44;7.80;99.90
65692;DHT22;52411;52.716;6.696;2024-03-07T13:15:11;7.70;99.90
65692;DHT22;52411;52.716;6.696;2024-03-07T13:17:37;7.60;99.90
65692;DHT22;52411;52.716;6.696;2024-03-07T13:20:04;7.50;99.90
65692;DHT22;52411;52.716;6.696;2024-03-07T13:22:43;7.50;99.90
65692;DHT22;52411;52.716;6.696;2024-03-07T13:25:21;7.50;99.90
65692;DHT22;52411;52.716;6.696;2024-03-07T13:28:06;7.50;99.90
65692;DHT22;52411;52.716;6.696;2024-03-07T13:30:49;7.50;99.90
65692;DHT22;52411;52.716;6.696;2024-03-07T13:33:16;7.50;99.90
65692;DHT22;52411;52.716;6.696;2024-03-07T13:35:41;7.50;99.90
65692;DHT22;52411;52.716;6.696;2024-03-07T13:38:07;7.60;99.90
65692;DHT22;52411;52.716;6.696;2024-03-07T13:40:33;7.60;99.90
65692;DHT22;52411;52.716;6.696;2024-03-07T13:43:04;7.60;99.90
65692;DHT22;52411;52.716;6.696;2024-03-07T13:45:32;7.60;99.90
65692;DHT22;52411;52.716;6.696;2024-03-07T13:48:05;7.60;99.90
65692;DHT22;52411;52.716;6.696;2024-03-07T13:50:31;7.60;99.90
65692;DHT22;52411;52.716;6.696;2024-03-07T13:52:58;7.70;99.90
65692;DHT22;52411;52.716;6.696;2024-03-07T14:01:02;7.60;99.90
65692;DHT22;52411;52.716;6.696;2024-03-07T14:06:49;7.50;99.90
65692;DHT22;52411;52.716;6.696;2024-03-07T14:32:40;7.20;99.90
65692;DHT22;52411;52.716;6.696;2024-03-07T14:38:06;7.20;99.90
65692;DHT22;52411;52.716;6.696;2024-03-07T14:40:48;7.20;99.90
65692;DHT22;52411;52.716;6.696;2024-03-07T14:43:15;7.20;99.90
65692;DHT22;52411;52.716;6.696;2024-03-07T14:45:42;7.20;99.90
65692;DHT22;52411;52.716;6.696;2024-03-07T14:48:10;7.20;99.90
65692;DHT22;52411;52.716;6.696;2024-03-07T14:50:39;7.30;99.90
65692;DHT22;52411;52.716;6.696;2024-03-07T14:53:06;7.20;99.90
65692;DHT22;52411;52.716;6.696;2024-03-07T14:55:32;7.20;99.90
65692;DHT22;52411;52.716;6.696;2024-03-07T14:57:59;7.20;99.90
65692;DHT22;52411;52.716;6.696;2024-03-07T15:00:26;7.20;99.90
65692;DHT22;52411;52.716;6.696;2024-03-07T15:02:52;7.20;99.90
65692;DHT22;52411;52.716;6.696;2024-03-07T15:05:25;7.20;99.90
65692;DHT22;52411;52.716;6.696;2024-03-07T15:07:54;7.20;99.90
65692;DHT22;52411;52.716;6.696;2024-03-07T15:10:24;7.20;99.90
65692;DHT22;52411;52.716;6.696;2024-03-07T15:12:53;7.20;99.90
65692;DHT22;52411;52.716;6.696;2024-03-07T15:15:19;7.20;99.90
65692;DHT22;52411;52.716;6.696;2024-03-07T15:17:48;7.20;99.90
65692;DHT22;52411;52.716;6.696;2024-03-07T15:20:14;7.20;99.90
65692;DHT22;52411;52.716;6.696;2024-03-07T15:23:06;7.20;99.90
65692;DHT22;52411;52.716;6.696;2024-03-07T15:25:32;7.20;99.90
65692;DHT22;52411;52.716;6.696;2024-03-07T15:27:59;7.20;99.90
65692;DHT22;52411;52.716;6.696;2024-03-07T15:30:26;7.20;99.90
65692;DHT22;52411;52.716;6.696;2024-03-07T15:33:00;7.20;99.90
65692;DHT22;52411;52.716;6.696;2024-03-07T15:35:26;7.20;99.90
65692;DHT22;52411;52.716;6.696;2024-03-07T15:37:52;7.20;99.90
65692;DHT22;52411;52.716;6.696;2024-03-07T15:40:20;7.20;99.90
65692;DHT22;52411;52.716;6.696;2024-03-07T15:42:50;7.20;99.90
65692;DHT22;52411;52.716;6.696;2024-03-07T15:45:20;7.20;99.90
65692;DHT22;52411;52.716;6.696;2024-03-07T15:47:55;7.50;99.90
65692;DHT22;52411;52.716;6.696;2024-03-07T15:50:25;7.80;99.90
65692;DHT22;52411;52.716;6.696;2024-03-07T15:52:55;8.10;99.90
65692;DHT22;52411;52.716;6.696;2024-03-07T15:55:21;8.40;99.90
65692;DHT22;52411;52.716;6.696;2024-03-07T15:57:51;8.10;99.90
65692;DHT22;52411;52.716;6.696;2024-03-07T16:00:29;7.90;99.90
65692;DHT22;52411;52.716;6.696;2024-03-07T16:03:02;7.70;99.90
65692;DHT22;52411;52.716;6.696;2024-03-07T16:05:36;7.60;99.90
65692;DHT22;52411;52.716;6.696;2024-03-07T16:08:05;7.60;99.90
65692;DHT22;52411;52.716;6.696;2024-03-07T16:10:38;7.50;99.90
65692;DHT22;52411;52.716;6.696;2024-03-07T16:13:11;7.40;99.90
65692;DHT22;52411;52.716;6.696;2024-03-07T16:15:42;7.40;99.90
65692;DHT22;52411;52.716;6.696;2024-03-07T16:18:09;7.30;99.90
65692;DHT22;52411;52.716;6.696;2024-03-07T16:20:35;7.30;99.90
65692;DHT22;52411;52.716;6.696;2024-03-07T16:23:01;7.20;99.90
65692;DHT22;52411;52.716;6.696;2024-03-07T16:25:31;7.10;99.90
65692;DHT22;52411;52.716;6.696;2024-03-07T16:27:56;7.10;99.90
65692;DHT22;52411;52.716;6.696;2024-03-07T16:30:25;7.10;99.90
65692;DHT22;52411;52.716;6.696;2024-03-07T16:32:51;7.00;99.90
65692;DHT22;52411;52.716;6.696;2024-03-07T16:35:28;7.00;99.90
65692;DHT22;52411;52.716;6.696;2024-03-07T16:37:56;7.00;99.90
65692;DHT22;52411;52.716;6.696;2024-03-07T16:40:24;6.90;99.90
65692;DHT22;52411;52.716;6.696;2024-03-07T16:42:54;6.80;99.90